createdAt,value
2023-01-30T00:01:33.697Z,9.00
2023-01-30T00:04:02.374Z,9.70
2023-01-30T00:06:31.036Z,10.00
2023-01-30T00:08:59.924Z,9.90
2023-01-30T00:11:30.312Z,10.20
2023-01-30T00:14:01.717Z,10.10
2023-01-30T00:16:30.443Z,9.90
2023-01-30T00:18:59.257Z,10.10
2023-01-30T00:21:27.947Z,11.10
2023-01-30T00:23:56.600Z,10.10
2023-01-30T00:26:25.253Z,10.50
2023-01-30T00:28:53.771Z,10.30
2023-01-30T00:31:25.543Z,11.00
2023-01-30T00:33:54.232Z,10.90
2023-01-30T00:36:25.405Z,10.80
2023-01-30T00:38:56.735Z,11.20
2023-01-30T00:41:45.460Z,10.50
2023-01-30T00:44:32.347Z,11.40
2023-01-30T00:47:09.201Z,8.60
2023-01-30T00:49:38.388Z,9.30
2023-01-30T00:52:07.066Z,8.10
2023-01-30T00:54:35.751Z,11.60
2023-01-30T00:57:04.413Z,9.30
2023-01-30T00:59:33.090Z,7.50
2023-01-30T01:02:01.942Z,9.00
2023-01-30T01:04:30.587Z,9.70
2023-01-30T01:06:59.531Z,10.80
2023-01-30T01:09:28.182Z,10.10
2023-01-30T01:11:56.832Z,10.10
2023-01-30T01:14:25.632Z,10.80
2023-01-30T01:16:54.733Z,11.60
2023-01-30T01:19:24.333Z,11.40
2023-01-30T01:21:53.099Z,11.80
2023-01-30T01:24:22.287Z,10.30
2023-01-30T01:26:51.016Z,10.90
2023-01-30T01:29:20.086Z,9.20
2023-01-30T01:31:48.694Z,11.50
2023-01-30T01:34:17.708Z,10.90
2023-01-30T01:36:53.893Z,10.50
2023-01-30T01:39:23.754Z,10.40
2023-01-30T01:41:52.550Z,9.40
2023-01-30T01:44:21.185Z,9.00
2023-01-30T01:46:57.626Z,9.70
2023-01-30T01:49:37.518Z,9.70
2023-01-30T01:52:13.706Z,10.90
2023-01-30T01:54:56.947Z,11.00
2023-01-30T01:57:48.836Z,11.30
2023-01-30T02:00:20.881Z,10.00
2023-01-30T02:02:59.259Z,10.30
2023-01-30T02:05:33.040Z,10.20
2023-01-30T02:08:15.531Z,9.50
2023-01-30T02:11:21.753Z,10.00
2023-01-30T02:13:51.289Z,9.90
2023-01-30T02:16:23.089Z,10.20
2023-01-30T02:18:52.665Z,10.10
2023-01-30T02:22:12.271Z,10.10
2023-01-30T02:24:44.343Z,10.10
2023-01-30T02:28:18.636Z,9.60
2023-01-30T02:31:02.605Z,9.40
2023-01-30T02:33:43.398Z,9.10
2023-01-30T02:36:41.490Z,9.30
2023-01-30T02:39:22.479Z,9.60
2023-01-30T02:42:43.685Z,10.40
2023-01-30T02:45:36.325Z,11.20
2023-01-30T02:48:07.974Z,10.30
2023-01-30T02:51:15.521Z,10.20
2023-01-30T02:53:47.594Z,10.30
2023-01-30T02:56:16.332Z,10.00
2023-01-30T02:58:52.623Z,11.00
2023-01-30T03:01:55.012Z,9.20
2023-01-30T03:05:18.418Z,10.20
2023-01-30T03:08:38.012Z,10.00
2023-01-30T03:11:11.581Z,10.10
2023-01-30T03:14:13.808Z,11.00
2023-01-30T03:16:42.570Z,10.80
2023-01-30T03:19:13.366Z,10.10
2023-01-30T03:21:44.798Z,11.00
2023-01-30T03:24:14.680Z,11.10
2023-01-30T03:27:03.929Z,10.90
2023-01-30T03:29:35.165Z,11.90
2023-01-30T03:32:04.138Z,11.80
2023-01-30T03:34:32.965Z,10.50
2023-01-30T03:37:02.597Z,10.40
2023-01-30T03:39:36.219Z,11.40
2023-01-30T03:42:05.094Z,10.00
2023-01-30T03:44:33.966Z,10.50
2023-01-30T03:47:02.814Z,10.30
2023-01-30T03:49:32.343Z,10.20
2023-01-30T03:52:01.882Z,10.30
2023-01-30T03:54:30.988Z,11.60
2023-01-30T03:57:00.869Z,10.50
2023-01-30T03:59:30.537Z,10.20
2023-01-30T04:02:05.871Z,12.50
2023-01-30T04:04:35.611Z,16.00
2023-01-30T04:07:05.381Z,15.20
2023-01-30T04:09:34.439Z,13.90
2023-01-30T04:12:06.090Z,12.10
2023-01-30T04:14:37.806Z,11.70
2023-01-30T04:17:27.421Z,11.30
2023-01-30T04:20:14.701Z,11.20
2023-01-30T04:22:47.815Z,12.00
2023-01-30T04:25:17.242Z,11.00
2023-01-30T04:27:47.229Z,12.00
2023-01-30T04:30:26.060Z,11.50
2023-01-30T04:33:00.216Z,11.80
2023-01-30T04:35:28.824Z,12.00
2023-01-30T04:37:57.485Z,13.30
2023-01-30T04:40:26.164Z,12.30
2023-01-30T04:42:54.803Z,11.10
2023-01-30T04:45:52.169Z,11.50
2023-01-30T04:48:23.717Z,12.00
2023-01-30T04:50:56.105Z,13.40
2023-01-30T04:53:26.192Z,12.80
2023-01-30T04:55:54.916Z,13.10
2023-01-30T04:58:23.846Z,15.80
2023-01-30T05:00:52.748Z,16.00
2023-01-30T05:03:21.597Z,15.60
2023-01-30T05:05:50.190Z,13.70
2023-01-30T05:08:18.947Z,13.80
2023-01-30T05:10:47.505Z,13.30
2023-01-30T05:13:16.225Z,13.40
2023-01-30T05:15:58.499Z,13.80
2023-01-30T05:18:27.310Z,15.10
2023-01-30T05:21:05.193Z,15.00
2023-01-30T05:23:33.891Z,15.50
2023-01-30T05:26:03.409Z,16.10
2023-01-30T05:28:33.580Z,16.20
2023-01-30T05:31:04.729Z,14.80
2023-01-30T05:33:34.679Z,16.50
2023-01-30T05:36:05.536Z,16.60
2023-01-30T05:38:34.682Z,18.10
2023-01-30T05:41:06.813Z,16.20
2023-01-30T05:43:36.075Z,16.60
2023-01-30T05:46:06.469Z,14.90
2023-01-30T05:48:35.257Z,17.10
2023-01-30T05:51:04.258Z,14.60
2023-01-30T05:53:35.297Z,13.20
2023-01-30T05:56:06.113Z,17.50
2023-01-30T05:58:34.860Z,14.40
2023-01-30T06:01:12.683Z,16.40
2023-01-30T06:03:41.490Z,17.00
2023-01-30T06:06:12.352Z,15.50
2023-01-30T06:08:41.356Z,18.40
2023-01-30T06:11:16.724Z,18.90
2023-01-30T06:13:46.389Z,17.20
2023-01-30T06:16:17.158Z,18.60
2023-01-30T06:18:52.362Z,23.40
2023-01-30T06:21:21.169Z,22.70
2023-01-30T06:23:49.850Z,20.60
2023-01-30T06:26:18.526Z,21.20
2023-01-30T06:28:47.432Z,19.30
2023-01-30T06:31:17.212Z,19.20
2023-01-30T06:33:46.149Z,19.40
2023-01-30T06:36:15.132Z,19.30
2023-01-30T06:38:44.228Z,18.20
2023-01-30T06:41:12.976Z,19.70
2023-01-30T06:43:44.855Z,24.20
2023-01-30T06:46:13.700Z,26.70
2023-01-30T06:48:42.580Z,26.60
2023-01-30T06:51:11.342Z,20.40
2023-01-30T06:53:40.135Z,21.80
2023-01-30T06:56:08.828Z,20.20
2023-01-30T06:58:37.679Z,20.90
2023-01-30T07:01:06.410Z,20.10
2023-01-30T07:03:34.959Z,17.90
2023-01-30T07:06:04.037Z,18.70
2023-01-30T07:08:32.661Z,17.40
2023-01-30T07:11:01.309Z,17.40
2023-01-30T07:13:29.890Z,16.60
2023-01-30T07:15:58.824Z,17.10
2023-01-30T07:18:28.729Z,22.10
2023-01-30T07:20:57.615Z,20.80
2023-01-30T07:23:26.328Z,22.70
2023-01-30T07:25:55.616Z,21.70
2023-01-30T07:28:24.391Z,21.30
2023-01-30T07:30:53.159Z,20.20
2023-01-30T07:33:22.042Z,19.90
2023-01-30T07:35:50.743Z,19.40
2023-01-30T07:38:19.603Z,18.60
2023-01-30T07:40:49.352Z,19.90
2023-01-30T07:43:19.987Z,20.10
2023-01-30T07:45:55.175Z,20.20
2023-01-30T07:48:24.363Z,22.00
2023-01-30T07:50:59.160Z,19.30
2023-01-30T07:53:27.865Z,18.20
2023-01-30T07:55:56.528Z,18.80
2023-01-30T07:58:25.208Z,16.30
2023-01-30T08:00:56.591Z,15.80
2023-01-30T08:03:25.345Z,17.10
2023-01-30T08:05:54.394Z,18.40
2023-01-30T08:08:23.112Z,20.50
2023-01-30T08:10:51.743Z,20.00
2023-01-30T08:13:20.583Z,15.10
2023-01-30T08:15:49.410Z,19.70
2023-01-30T08:18:18.043Z,19.00
2023-01-30T08:20:46.704Z,18.20
2023-01-30T08:23:15.242Z,18.10
2023-01-30T08:25:43.770Z,18.70
2023-01-30T08:28:12.305Z,16.40
2023-01-30T08:30:42.571Z,14.00
2023-01-30T08:33:11.444Z,13.90
2023-01-30T08:35:41.808Z,12.70
2023-01-30T08:38:10.479Z,12.60
2023-01-30T08:40:39.313Z,13.10
2023-01-30T08:43:08.437Z,14.10
2023-01-30T08:45:37.214Z,12.40
2023-01-30T08:48:57.565Z,13.90
2023-01-30T08:51:34.989Z,11.30
2023-01-30T08:54:07.660Z,9.80
2023-01-30T08:56:36.553Z,9.80
2023-01-30T08:59:05.981Z,8.90
2023-01-30T09:01:35.969Z,8.30
2023-01-30T09:04:41.063Z,10.70
2023-01-30T09:07:23.122Z,8.50
2023-01-30T09:10:20.166Z,9.60
2023-01-30T09:12:55.358Z,8.70
2023-01-30T09:15:33.503Z,8.10
2023-01-30T09:18:02.694Z,8.00
2023-01-30T09:20:33.827Z,9.40
2023-01-30T09:23:14.243Z,9.60
2023-01-30T09:25:46.165Z,8.90
2023-01-30T09:28:25.050Z,10.70
2023-01-30T09:31:02.390Z,11.00
2023-01-30T09:33:31.258Z,8.80
2023-01-30T09:36:03.545Z,8.70
2023-01-30T09:38:34.593Z,8.00
2023-01-30T09:41:38.991Z,9.40
2023-01-30T09:45:05.637Z,8.80
2023-01-30T09:48:01.762Z,9.70
2023-01-30T09:51:36.089Z,7.20
2023-01-30T09:54:31.562Z,9.40
2023-01-30T09:57:20.540Z,7.40
2023-01-30T10:00:47.103Z,9.20
2023-01-30T10:03:30.998Z,11.10
2023-01-30T10:06:20.554Z,9.30
2023-01-30T10:09:43.317Z,10.40
2023-01-30T10:12:58.955Z,9.80
2023-01-30T10:16:10.675Z,9.90
2023-01-30T10:19:35.896Z,10.10
2023-01-30T10:22:19.004Z,10.80
2023-01-30T10:25:03.957Z,9.00
2023-01-30T10:27:40.867Z,10.20
2023-01-30T10:30:16.688Z,10.80
2023-01-30T10:32:57.853Z,11.80
2023-01-30T10:35:34.715Z,8.50
2023-01-30T10:38:47.245Z,10.40
2023-01-30T10:41:38.142Z,9.10
2023-01-30T10:44:13.952Z,10.90
2023-01-30T10:46:58.009Z,11.00
2023-01-30T10:49:52.027Z,12.30
2023-01-30T10:52:45.501Z,11.80
2023-01-30T10:55:37.190Z,10.50
2023-01-30T10:58:42.521Z,13.20
2023-01-30T11:01:32.436Z,12.00
2023-01-30T11:04:14.495Z,11.40
2023-01-30T11:06:43.428Z,12.80
2023-01-30T11:09:12.248Z,14.50
2023-01-30T11:11:53.997Z,12.70
2023-01-30T11:14:22.861Z,11.10
2023-01-30T11:16:56.840Z,13.40
2023-01-30T11:19:32.952Z,14.40
2023-01-30T11:22:05.319Z,13.60
2023-01-30T11:24:45.626Z,12.40
2023-01-30T11:27:35.087Z,14.10
2023-01-30T11:30:18.610Z,13.00
2023-01-30T11:32:50.480Z,13.00
2023-01-30T11:35:28.024Z,14.90
2023-01-30T11:38:20.595Z,12.90
2023-01-30T11:40:49.413Z,14.10
2023-01-30T11:43:18.125Z,13.10
2023-01-30T11:45:50.413Z,13.20
2023-01-30T11:51:11.298Z,13.50
2023-01-30T11:53:47.403Z,13.50
2023-01-30T11:56:43.042Z,12.20
2023-01-30T11:59:39.963Z,12.60
2023-01-30T12:02:34.052Z,13.90
2023-01-30T12:05:20.157Z,14.70
2023-01-30T12:07:51.793Z,12.60
2023-01-30T12:10:31.902Z,14.00
2023-01-30T12:13:15.295Z,13.20
2023-01-30T12:15:48.676Z,11.60
2023-01-30T12:18:37.392Z,12.90
2023-01-30T12:21:36.433Z,12.90
2023-01-30T12:24:39.237Z,12.80
2023-01-30T12:30:50.788Z,16.90
2023-01-30T12:33:19.817Z,15.10
2023-01-30T12:36:32.171Z,14.10
2023-01-30T12:39:32.289Z,12.20
2023-01-30T12:42:35.202Z,11.50
2023-01-30T12:45:23.719Z,12.10
2023-01-30T12:48:25.563Z,22.20
2023-01-30T12:50:54.833Z,11.50
2023-01-30T12:53:45.458Z,14.20
2023-01-30T12:56:24.257Z,11.50
2023-01-30T12:59:03.906Z,12.10
2023-01-30T13:02:16.987Z,11.60
2023-01-30T13:05:16.630Z,11.80
2023-01-30T13:08:16.802Z,11.50
2023-01-30T13:11:10.683Z,12.90
2023-01-30T13:14:16.845Z,14.50
2023-01-30T13:17:26.565Z,14.10
2023-01-30T13:20:12.852Z,14.60
2023-01-30T13:22:50.823Z,10.70
2023-01-30T13:25:58.870Z,10.70
2023-01-30T13:28:46.010Z,13.50
2023-01-30T13:31:24.252Z,12.40
2023-01-30T13:34:13.619Z,13.60
2023-01-30T13:37:12.428Z,14.30
2023-01-30T13:39:44.275Z,11.40
2023-01-30T13:42:53.675Z,12.30
2023-01-30T13:45:45.453Z,11.70
2023-01-30T13:48:53.945Z,12.20
2023-01-30T13:51:45.470Z,12.80
2023-01-30T13:54:52.794Z,11.80
2023-01-30T13:58:02.879Z,10.70
2023-01-30T14:00:36.925Z,14.40
2023-01-30T14:03:08.663Z,13.70
2023-01-30T14:05:59.343Z,12.90
2023-01-30T14:08:29.421Z,12.90
2023-01-30T14:10:58.887Z,13.20
2023-01-30T14:13:30.113Z,12.00
2023-01-30T14:16:16.078Z,11.60
2023-01-30T14:18:48.120Z,10.90
2023-01-30T14:21:24.741Z,11.00
2023-01-30T14:24:03.486Z,12.80
2023-01-30T14:26:59.782Z,13.20
2023-01-30T14:29:42.680Z,12.70
2023-01-30T14:32:15.670Z,11.50
2023-01-30T14:35:14.094Z,12.40
2023-01-30T14:37:51.251Z,11.50
2023-01-30T14:40:23.253Z,12.30
2023-01-30T14:43:43.089Z,13.00
2023-01-30T14:46:19.443Z,12.80
2023-01-30T14:48:54.574Z,12.00
2023-01-30T14:51:25.816Z,12.40
2023-01-30T14:55:16.832Z,13.70
2023-01-30T14:57:52.884Z,13.30
2023-01-30T15:00:29.438Z,12.90
2023-01-30T15:03:10.475Z,14.00
2023-01-30T15:05:44.802Z,14.80
2023-01-30T15:08:27.669Z,14.50
2023-01-30T15:11:32.228Z,13.60
2023-01-30T15:14:41.299Z,13.90
2023-01-30T15:17:22.437Z,13.60
2023-01-30T15:20:09.622Z,14.70
2023-01-30T15:23:34.196Z,15.90
2023-01-30T15:26:44.515Z,15.70
2023-01-30T15:29:46.638Z,15.20
2023-01-30T15:32:23.000Z,15.90
2023-01-30T15:35:16.194Z,18.20
2023-01-30T15:37:54.886Z,16.60
2023-01-30T15:40:30.041Z,12.80
2023-01-30T15:43:01.786Z,17.70
2023-01-30T15:46:04.620Z,16.50
2023-01-30T15:49:15.105Z,16.90
2023-01-30T15:51:43.921Z,19.00
2023-01-30T15:54:18.689Z,20.80
2023-01-30T15:56:49.771Z,20.20
2023-01-30T15:59:40.245Z,19.40
2023-01-30T16:02:19.292Z,14.90
2023-01-30T16:04:48.440Z,22.00
2023-01-30T16:07:17.950Z,19.80
2023-01-30T16:10:06.752Z,18.20
2023-01-30T16:12:41.050Z,14.60
2023-01-30T16:15:36.477Z,20.70
2023-01-30T16:18:33.057Z,21.00
2023-01-30T16:21:09.725Z,17.10
2023-01-30T16:23:52.972Z,25.20
2023-01-30T16:26:23.015Z,24.30
2023-01-30T16:29:01.666Z,25.40
2023-01-30T16:31:38.225Z,22.60
2023-01-30T16:34:38.706Z,23.40
2023-01-30T16:37:19.585Z,21.00
2023-01-30T16:40:23.060Z,20.70
2023-01-30T16:47:08.128Z,20.90
2023-01-30T16:49:36.771Z,27.40
2023-01-30T16:52:12.676Z,22.30
2023-01-30T16:54:51.855Z,22.00
2023-01-30T16:57:50.569Z,24.50
2023-01-30T17:00:36.715Z,25.00
2023-01-30T17:03:28.806Z,23.80
2023-01-30T17:05:59.696Z,28.60
2023-01-30T17:08:31.477Z,29.30
2023-01-30T17:11:04.473Z,29.40
2023-01-30T17:13:37.610Z,30.10
2023-01-30T17:16:24.524Z,29.40
2023-01-30T17:18:56.733Z,30.90
2023-01-30T17:21:35.461Z,30.20
2023-01-30T17:24:06.248Z,29.40
2023-01-30T17:26:35.019Z,28.10
2023-01-30T17:29:03.753Z,26.80
2023-01-30T17:31:32.506Z,27.80
2023-01-30T17:34:01.932Z,26.80
2023-01-30T17:36:31.675Z,26.30
2023-01-30T17:39:00.668Z,26.50
2023-01-30T17:41:32.976Z,24.40
2023-01-30T17:44:01.752Z,24.20
2023-01-30T17:46:45.511Z,25.40
2023-01-30T17:49:21.702Z,24.50
2023-01-30T17:51:52.439Z,25.00
2023-01-30T17:54:21.744Z,28.70
2023-01-30T17:56:59.651Z,27.90
2023-01-30T17:59:28.300Z,25.10
2023-01-30T18:01:57.200Z,24.60
2023-01-30T18:04:25.777Z,24.20
2023-01-30T18:07:03.723Z,29.90
2023-01-30T18:09:33.225Z,32.70
2023-01-30T18:12:02.297Z,28.00
2023-01-30T18:14:30.839Z,31.00
2023-01-30T18:17:02.663Z,29.20
2023-01-30T18:19:31.840Z,29.00
2023-01-30T18:22:00.667Z,27.30
2023-01-30T18:24:33.977Z,24.40
2023-01-30T18:27:03.103Z,25.20
2023-01-30T18:29:31.655Z,22.10
2023-01-30T18:32:08.320Z,27.20
2023-01-30T18:34:39.021Z,30.80
2023-01-30T18:37:08.067Z,31.60
2023-01-30T18:39:38.677Z,30.40
2023-01-30T18:42:10.203Z,26.60
2023-01-30T18:44:39.562Z,22.20
2023-01-30T18:47:08.238Z,23.80
2023-01-30T18:49:36.938Z,24.40
2023-01-30T18:52:05.822Z,27.80
2023-01-30T18:54:34.577Z,52.50
2023-01-30T18:57:03.802Z,17.60
2023-01-30T18:59:32.723Z,21.20
2023-01-30T19:02:01.324Z,19.10
2023-01-30T19:04:30.426Z,17.10
2023-01-30T19:06:59.348Z,19.80
2023-01-30T19:09:28.978Z,18.60
2023-01-30T19:12:18.411Z,19.90
2023-01-30T19:14:48.580Z,24.60
2023-01-30T19:17:20.465Z,33.50
2023-01-30T19:19:50.233Z,25.90
2023-01-30T19:22:19.615Z,14.80
2023-01-30T19:24:48.438Z,21.30
2023-01-30T19:27:17.690Z,17.60
2023-01-30T19:29:47.315Z,19.40
2023-01-30T19:32:16.090Z,15.50
2023-01-30T19:34:45.358Z,19.70
2023-01-30T19:37:14.359Z,17.60
2023-01-30T19:39:43.261Z,25.30
2023-01-30T19:42:12.289Z,22.90
2023-01-30T19:44:41.243Z,24.30
2023-01-30T19:47:10.020Z,25.80
2023-01-30T19:49:38.674Z,24.60
2023-01-30T19:52:09.554Z,25.50
2023-01-30T19:54:40.466Z,25.30
2023-01-30T19:57:09.556Z,26.40
2023-01-30T19:59:39.174Z,24.60
2023-01-30T20:02:11.141Z,23.50
2023-01-30T20:04:40.822Z,27.70
2023-01-30T20:07:09.322Z,25.60
2023-01-30T20:09:38.337Z,25.50
2023-01-30T20:12:07.607Z,27.30
2023-01-30T20:14:36.426Z,35.60
2023-01-30T20:17:05.291Z,29.50
2023-01-30T20:19:33.901Z,46.50
2023-01-30T20:22:08.199Z,46.00
2023-01-30T20:24:37.129Z,35.70
2023-01-30T20:27:07.892Z,30.70
2023-01-30T20:29:36.493Z,32.80
2023-01-30T20:32:05.565Z,27.80
2023-01-30T20:34:34.324Z,26.90
2023-01-30T20:37:04.531Z,29.60
2023-01-30T20:39:34.875Z,29.80
2023-01-30T20:42:03.729Z,30.80
2023-01-30T20:44:32.936Z,32.30
2023-01-30T20:47:02.049Z,31.30
2023-01-30T20:49:30.675Z,28.30
2023-01-30T20:51:59.314Z,30.30
2023-01-30T20:54:28.050Z,33.00
2023-01-30T20:56:57.304Z,32.30
2023-01-30T20:59:27.524Z,33.70
2023-01-30T21:01:56.219Z,33.10
2023-01-30T21:04:25.077Z,32.30
2023-01-30T21:06:54.053Z,29.50
2023-01-30T21:09:24.364Z,28.80
2023-01-30T21:11:53.585Z,29.00
2023-01-30T21:14:22.709Z,29.50
2023-01-30T21:16:51.929Z,29.80
2023-01-30T21:19:21.991Z,30.60
2023-01-30T21:21:55.204Z,30.10
2023-01-30T21:24:28.989Z,27.70
2023-01-30T21:26:57.879Z,28.60
2023-01-30T21:29:29.007Z,29.70
2023-01-30T21:31:58.850Z,31.60
2023-01-30T21:34:27.597Z,32.20
2023-01-30T21:37:14.578Z,30.50
2023-01-30T21:40:01.478Z,29.70
2023-01-30T21:42:49.382Z,29.00
2023-01-30T21:45:21.341Z,28.10
2023-01-30T21:47:52.521Z,26.00
2023-01-30T21:53:56.064Z,26.60
2023-01-30T21:56:24.856Z,28.50
2023-01-30T21:58:56.549Z,26.50
2023-01-30T22:01:26.296Z,22.20
2023-01-30T22:03:55.983Z,17.60
2023-01-30T22:06:24.649Z,14.60
2023-01-30T22:09:02.098Z,14.00
2023-01-30T22:11:31.520Z,12.50
2023-01-30T22:14:00.212Z,13.20
2023-01-30T22:16:30.308Z,12.60
2023-01-30T22:19:02.051Z,13.20
2023-01-30T22:21:36.306Z,12.30
2023-01-30T22:24:08.448Z,13.50
2023-01-30T22:26:37.692Z,12.20
2023-01-30T22:29:06.738Z,11.70
2023-01-30T22:31:40.695Z,11.70
2023-01-30T22:34:09.395Z,10.40
2023-01-30T22:36:38.370Z,10.80
2023-01-30T22:39:07.164Z,10.50
2023-01-30T22:41:36.356Z,11.40
2023-01-30T22:44:09.067Z,10.40
2023-01-30T22:49:10.076Z,9.80
2023-01-30T22:51:41.415Z,8.60
2023-01-30T22:54:16.885Z,8.30
2023-01-30T22:56:49.193Z,8.70
2023-01-30T22:59:17.901Z,10.20
2023-01-30T23:01:50.790Z,8.90
2023-01-30T23:04:22.697Z,8.60
2023-01-30T23:06:52.412Z,8.50
2023-01-30T23:09:23.515Z,8.30
2023-01-30T23:12:46.533Z,9.00
2023-01-30T23:15:15.374Z,9.60
2023-01-30T23:18:02.304Z,10.10
2023-01-30T23:20:30.968Z,9.10
2023-01-30T23:22:59.771Z,9.30
2023-01-30T23:25:28.363Z,10.50
2023-01-30T23:27:57.019Z,9.30
2023-01-30T23:30:25.645Z,10.00
2023-01-30T23:32:54.161Z,9.60
2023-01-30T23:35:22.894Z,9.60
2023-01-30T23:38:09.749Z,10.10
2023-01-30T23:40:38.692Z,9.80
2023-01-30T23:43:07.424Z,10.40
2023-01-30T23:45:38.879Z,10.20
2023-01-30T23:48:08.871Z,10.40
2023-01-30T23:50:40.146Z,9.90
2023-01-30T23:53:10.036Z,10.20
2023-01-30T23:55:38.744Z,10.40
2023-01-30T23:58:08.381Z,10.50
